createdAt,value
2022-08-25T00:02:07.125Z,2.40
2022-08-25T00:04:35.842Z,1.88
2022-08-25T00:07:05.129Z,2.35
2022-08-25T00:09:33.887Z,2.33
2022-08-25T00:12:01.745Z,2.33
2022-08-25T00:14:35.171Z,2.28
2022-08-25T00:17:02.923Z,2.58
2022-08-25T00:19:33.789Z,2.20
2022-08-25T00:22:01.841Z,2.25
2022-08-25T00:24:29.547Z,2.00
2022-08-25T00:26:58.927Z,2.10
2022-08-25T00:29:26.522Z,2.20
2022-08-25T00:31:54.875Z,2.10
2022-08-25T00:34:25.523Z,2.20
2022-08-25T00:36:52.369Z,2.55
2022-08-25T00:39:21.061Z,2.08
2022-08-25T00:41:50.841Z,2.42
2022-08-25T00:44:18.979Z,2.00
2022-08-25T00:46:57.615Z,2.30
2022-08-25T00:49:33.670Z,1.95
2022-08-25T00:52:05.326Z,2.15
2022-08-25T00:54:42.373Z,2.30
2022-08-25T00:57:12.863Z,2.30
2022-08-25T00:59:40.902Z,2.22
2022-08-25T01:02:10.283Z,2.20
2022-08-25T01:04:45.878Z,2.05
2022-08-25T01:09:46.166Z,2.00
2022-08-25T01:12:13.269Z,1.88
2022-08-25T01:14:40.317Z,1.92
2022-08-25T01:17:07.215Z,2.03
2022-08-25T01:19:33.971Z,1.90
2022-08-25T01:22:01.125Z,2.40
2022-08-25T01:24:58.874Z,2.30
2022-08-25T01:27:26.049Z,2.53
2022-08-25T01:29:56.170Z,2.03
2022-08-25T01:32:22.938Z,2.30
2022-08-25T01:34:49.760Z,2.22
2022-08-25T01:37:21.653Z,2.22
2022-08-25T01:39:48.650Z,2.25
2022-08-25T01:42:23.747Z,1.95
2022-08-25T01:44:51.039Z,1.98
2022-08-25T01:47:18.312Z,1.92
2022-08-25T01:49:45.547Z,2.60
2022-08-25T01:52:24.270Z,2.20
2022-08-25T01:54:51.524Z,2.40
2022-08-25T01:57:18.465Z,2.17
2022-08-25T01:59:45.499Z,2.13
2022-08-25T02:02:14.686Z,2.28
2022-08-25T02:04:45.221Z,2.40
2022-08-25T02:07:15.280Z,2.30
2022-08-25T02:09:44.434Z,2.40
2022-08-25T02:12:11.222Z,2.30
2022-08-25T02:14:38.229Z,1.73
2022-08-25T02:17:05.977Z,1.70
2022-08-25T02:19:33.218Z,2.30
2022-08-25T02:22:00.367Z,2.20
2022-08-25T02:24:27.297Z,2.20
2022-08-25T02:26:54.307Z,2.25
2022-08-25T02:29:21.384Z,2.63
2022-08-25T02:31:48.630Z,2.15
2022-08-25T02:34:18.574Z,2.30
2022-08-25T02:36:45.490Z,2.72
2022-08-25T02:39:13.223Z,2.25
2022-08-25T02:41:40.200Z,2.28
2022-08-25T02:44:08.490Z,1.95
2022-08-25T02:46:36.420Z,2.15
2022-08-25T02:49:03.692Z,2.25
2022-08-25T02:51:31.922Z,2.20
2022-08-25T02:54:02.013Z,2.40
2022-08-25T02:56:32.682Z,2.38
2022-08-25T02:59:01.544Z,2.00
2022-08-25T03:01:29.246Z,2.10
2022-08-25T03:03:59.981Z,2.13
2022-08-25T03:06:27.963Z,2.22
2022-08-25T03:08:55.334Z,1.90
2022-08-25T03:11:22.280Z,2.53
2022-08-25T03:13:52.411Z,2.65
2022-08-25T03:16:20.309Z,2.40
2022-08-25T03:18:48.580Z,2.15
2022-08-25T03:21:16.275Z,2.10
2022-08-25T03:23:43.506Z,2.80
2022-08-25T03:26:28.857Z,2.55
2022-08-25T03:28:56.301Z,1.83
2022-08-25T03:31:25.016Z,2.35
2022-08-25T03:33:51.789Z,2.35
2022-08-25T03:36:21.065Z,2.30
2022-08-25T03:38:47.732Z,2.60
2022-08-25T03:41:18.949Z,2.70
2022-08-25T03:43:45.691Z,2.20
2022-08-25T03:46:24.104Z,2.42
2022-08-25T03:48:52.024Z,2.05
2022-08-25T03:51:32.011Z,2.35
2022-08-25T03:54:00.232Z,2.60
2022-08-25T03:56:27.767Z,2.40
2022-08-25T03:58:55.007Z,2.40
2022-08-25T04:01:22.208Z,2.35
2022-08-25T04:03:49.386Z,2.70
2022-08-25T04:06:18.228Z,2.45
2022-08-25T04:08:45.032Z,2.67
2022-08-25T04:11:15.889Z,2.50
2022-08-25T04:13:42.639Z,2.40
2022-08-25T04:16:23.420Z,2.33
2022-08-25T04:18:51.397Z,2.70
2022-08-25T04:21:20.137Z,1.98
2022-08-25T04:23:50.920Z,2.80
2022-08-25T04:26:24.903Z,2.60
2022-08-25T04:28:51.803Z,2.33
2022-08-25T04:31:21.929Z,2.92
2022-08-25T04:33:49.641Z,2.83
2022-08-25T04:36:18.623Z,2.70
2022-08-25T04:38:46.936Z,2.53
2022-08-25T04:41:15.352Z,2.78
2022-08-25T04:43:44.282Z,2.40
2022-08-25T04:46:23.131Z,2.40
2022-08-25T04:48:51.857Z,2.63
2022-08-25T04:51:21.090Z,2.70
2022-08-25T04:53:47.930Z,3.03
2022-08-25T04:56:17.263Z,2.35
2022-08-25T04:58:46.719Z,2.35
2022-08-25T05:01:17.065Z,2.53
2022-08-25T05:03:45.326Z,2.65
2022-08-25T05:06:16.094Z,2.55
2022-08-25T05:08:45.836Z,2.30
2022-08-25T05:11:14.787Z,2.55
2022-08-25T05:13:42.530Z,2.60
2022-08-25T05:16:09.926Z,2.50
2022-08-25T05:18:38.436Z,2.78
2022-08-25T05:21:11.185Z,3.08
2022-08-25T05:23:38.634Z,2.50
2022-08-25T05:26:19.077Z,2.40
2022-08-25T05:28:47.363Z,2.70
2022-08-25T05:31:15.313Z,3.22
2022-08-25T05:33:42.364Z,2.70
2022-08-25T05:36:12.073Z,2.90
2022-08-25T05:38:41.106Z,2.53
2022-08-25T05:41:10.590Z,2.90
2022-08-25T05:43:39.761Z,2.90
2022-08-25T05:46:07.371Z,2.33
2022-08-25T05:48:34.574Z,2.75
2022-08-25T05:51:03.772Z,2.70
2022-08-25T05:53:31.367Z,2.60
2022-08-25T05:56:02.096Z,3.00
2022-08-25T05:58:29.796Z,3.28
2022-08-25T06:00:58.031Z,2.53
2022-08-25T06:03:24.911Z,2.83
2022-08-25T06:05:51.846Z,2.70
2022-08-25T06:08:19.455Z,2.80
2022-08-25T06:10:51.650Z,3.05
2022-08-25T06:13:18.520Z,2.85
2022-08-25T06:18:27.505Z,2.80
2022-08-25T06:20:54.262Z,2.65
2022-08-25T06:23:21.093Z,3.15
2022-08-25T06:25:56.447Z,2.85
2022-08-25T06:28:23.318Z,2.90
2022-08-25T06:30:50.332Z,3.03
2022-08-25T06:33:17.385Z,2.67
2022-08-25T06:35:44.448Z,3.08
2022-08-25T06:38:11.589Z,3.20
2022-08-25T06:40:38.707Z,2.80
2022-08-25T06:43:08.823Z,3.10
2022-08-25T06:45:35.942Z,3.10
2022-08-25T06:48:03.167Z,2.95
2022-08-25T06:50:30.144Z,2.95
2022-08-25T06:52:56.979Z,2.83
2022-08-25T06:55:23.731Z,3.05
2022-08-25T06:57:53.940Z,3.33
2022-08-25T07:00:22.852Z,3.05
2022-08-25T07:05:33.535Z,2.80
2022-08-25T07:08:07.555Z,2.97
2022-08-25T07:10:34.233Z,3.25
2022-08-25T07:13:03.397Z,3.28
2022-08-25T07:15:30.255Z,3.05
2022-08-25T07:17:58.017Z,3.00
2022-08-25T07:22:56.966Z,2.95
2022-08-25T07:25:24.567Z,3.00
2022-08-25T07:27:53.807Z,3.10
2022-08-25T07:30:25.886Z,3.03
2022-08-25T07:32:55.128Z,3.53
2022-08-25T07:35:26.253Z,3.25
2022-08-25T07:37:56.754Z,2.97
2022-08-25T07:40:29.958Z,3.13
2022-08-25T07:42:59.803Z,2.83
2022-08-25T07:45:30.618Z,2.90
2022-08-25T07:48:03.474Z,3.20
2022-08-25T07:50:31.407Z,2.55
2022-08-25T07:52:59.871Z,2.97
2022-08-25T07:55:28.286Z,3.03
2022-08-25T07:57:57.334Z,2.72
2022-08-25T08:00:27.692Z,2.88
2022-08-25T08:02:54.961Z,3.00
2022-08-25T08:05:24.022Z,3.30
2022-08-25T08:07:51.817Z,3.33
2022-08-25T08:10:48.103Z,3.60
2022-08-25T08:13:07.692Z,2.92
2022-08-25T08:15:35.097Z,3.03
2022-08-25T08:18:03.139Z,3.30
2022-08-25T08:20:42.495Z,3.13
2022-08-25T08:23:10.658Z,2.90
2022-08-25T08:25:37.389Z,3.08
2022-08-25T08:28:07.330Z,2.92
2022-08-25T08:30:36.428Z,2.88
2022-08-25T08:33:12.933Z,3.28
2022-08-25T08:35:41.784Z,3.20
2022-08-25T08:38:14.962Z,3.53
2022-08-25T08:41:15.834Z,3.80
2022-08-25T08:43:45.122Z,3.13
2022-08-25T08:46:11.867Z,3.50
2022-08-25T08:48:58.976Z,3.80
2022-08-25T08:51:35.921Z,3.58
2022-08-25T08:54:25.387Z,3.55
2022-08-25T08:57:06.279Z,3.90
2022-08-25T08:59:48.961Z,3.47
2022-08-25T09:02:39.271Z,3.90
2022-08-25T09:05:19.320Z,3.90
2022-08-25T09:07:54.569Z,4.35
2022-08-25T09:10:24.219Z,4.25
2022-08-25T09:13:19.193Z,4.32
2022-08-25T09:16:33.058Z,3.85
2022-08-25T09:19:23.502Z,3.92
2022-08-25T09:22:33.554Z,3.78
2022-08-25T09:25:29.451Z,4.07
2022-08-25T09:28:02.206Z,3.95
2022-08-25T09:30:41.155Z,4.03
2022-08-25T09:33:09.894Z,3.78
2022-08-25T09:35:40.661Z,4.90
2022-08-25T09:38:12.004Z,4.07
2022-08-25T09:40:46.300Z,3.58
2022-08-25T09:43:22.365Z,3.67
2022-08-25T09:46:02.436Z,3.65
2022-08-25T09:48:42.562Z,3.50
2022-08-25T09:51:42.394Z,3.42
2022-08-25T09:54:12.613Z,3.65
2022-08-25T09:56:58.370Z,3.53
2022-08-25T09:59:34.709Z,3.58
2022-08-25T10:02:23.601Z,4.13
2022-08-25T10:04:50.691Z,3.38
2022-08-25T10:07:48.039Z,2.80
2022-08-25T10:10:45.265Z,3.03
2022-08-25T10:13:22.676Z,2.75
2022-08-25T10:16:20.538Z,2.83
2022-08-25T10:19:22.571Z,4.22
2022-08-25T10:22:10.902Z,2.72
2022-08-25T10:24:43.816Z,3.72
2022-08-25T10:27:20.058Z,3.20
2022-08-25T10:30:12.464Z,3.20
2022-08-25T10:33:09.958Z,2.80
2022-08-25T10:35:45.579Z,3.42
2022-08-25T10:38:36.193Z,2.80
2022-08-25T10:41:24.851Z,3.00
2022-08-25T10:44:50.478Z,3.22
2022-08-25T10:47:47.860Z,3.08
2022-08-25T10:50:45.502Z,3.00
2022-08-25T10:53:23.642Z,3.05
2022-08-25T10:55:58.816Z,3.13
2022-08-25T10:58:51.184Z,3.08
2022-08-25T11:01:36.714Z,2.85
2022-08-25T11:04:26.164Z,2.95
2022-08-25T11:07:19.727Z,3.10
2022-08-25T11:09:51.041Z,2.83
2022-08-25T11:12:29.526Z,2.97
2022-08-25T11:15:01.271Z,3.20
2022-08-25T11:18:02.145Z,2.70
2022-08-25T11:20:41.321Z,3.05
2022-08-25T11:23:21.350Z,2.88
2022-08-25T11:25:59.721Z,2.80
2022-08-25T11:28:54.240Z,3.22
2022-08-25T11:31:22.600Z,3.05
2022-08-25T11:33:50.999Z,2.85
2022-08-25T11:36:35.557Z,2.95
2022-08-25T11:39:34.570Z,2.95
2022-08-25T11:42:20.139Z,2.70
2022-08-25T11:45:06.946Z,2.60
2022-08-25T11:47:59.312Z,2.67
2022-08-25T11:50:54.685Z,2.90
2022-08-25T11:53:35.198Z,3.00
2022-08-25T11:56:28.227Z,3.00
2022-08-25T11:58:55.071Z,3.00
2022-08-25T12:01:40.228Z,3.10
2022-08-25T12:04:15.028Z,3.08
2022-08-25T12:07:07.039Z,3.10
2022-08-25T12:09:46.286Z,2.80
2022-08-25T12:12:37.681Z,3.35
2022-08-25T12:15:24.711Z,2.63
2022-08-25T12:18:10.364Z,2.95
2022-08-25T12:20:53.498Z,2.78
2022-08-25T12:23:37.673Z,2.88
2022-08-25T12:26:36.520Z,2.60
2022-08-25T12:29:21.451Z,2.80
2022-08-25T12:32:17.411Z,2.55
2022-08-25T12:35:29.602Z,2.70
2022-08-25T12:37:59.604Z,2.75
2022-08-25T12:40:35.112Z,2.78
2022-08-25T12:43:08.956Z,3.38
2022-08-25T12:45:38.643Z,2.67
2022-08-25T12:48:27.701Z,2.92
2022-08-25T12:51:07.917Z,2.55
2022-08-25T12:54:12.314Z,2.65
2022-08-25T12:56:47.579Z,2.75
2022-08-25T12:59:31.100Z,2.60
2022-08-25T13:02:32.828Z,2.50
2022-08-25T13:05:39.575Z,2.78
2022-08-25T13:08:27.865Z,2.72
2022-08-25T13:11:24.792Z,2.45
2022-08-25T13:14:10.697Z,2.28
2022-08-25T13:16:37.461Z,2.38
2022-08-25T13:19:06.752Z,2.50
2022-08-25T13:21:37.662Z,2.70
2022-08-25T13:24:12.433Z,2.75
2022-08-25T13:26:48.087Z,2.40
2022-08-25T13:29:22.202Z,2.80
2022-08-25T13:31:58.569Z,2.60
2022-08-25T13:34:34.527Z,3.10
2022-08-25T13:37:24.842Z,2.90
2022-08-25T13:40:06.632Z,2.95
2022-08-25T13:42:33.749Z,2.45
2022-08-25T13:45:00.469Z,2.85
2022-08-25T13:47:43.688Z,2.80
2022-08-25T13:50:27.221Z,2.67
2022-08-25T13:52:53.994Z,2.45
2022-08-25T13:55:38.193Z,2.60
2022-08-25T13:58:24.822Z,2.58
2022-08-25T14:01:45.195Z,2.47
2022-08-25T14:04:21.828Z,2.50
2022-08-25T14:07:04.394Z,2.42
2022-08-25T14:09:49.410Z,2.85
2022-08-25T14:12:30.363Z,2.55
2022-08-25T14:15:07.466Z,2.30
2022-08-25T14:17:39.453Z,2.22
2022-08-25T14:20:21.849Z,2.53
2022-08-25T14:22:54.273Z,2.40
2022-08-25T14:25:21.155Z,2.42
2022-08-25T14:28:06.883Z,2.20
2022-08-25T14:30:36.069Z,2.53
2022-08-25T14:33:04.062Z,2.10
2022-08-25T14:35:31.720Z,2.13
2022-08-25T14:37:58.604Z,2.60
2022-08-25T14:40:25.656Z,2.55
2022-08-25T14:42:52.603Z,2.22
2022-08-25T14:45:19.844Z,2.47
2022-08-25T14:47:49.803Z,1.77
2022-08-25T14:50:24.915Z,2.15
2022-08-25T14:52:52.306Z,2.05
2022-08-25T14:55:31.317Z,2.08
2022-08-25T14:57:59.097Z,2.10
2022-08-25T15:00:26.331Z,1.88
2022-08-25T15:02:53.582Z,2.00
2022-08-25T15:05:27.107Z,2.20
2022-08-25T15:08:14.351Z,2.20
2022-08-25T15:10:44.445Z,1.70
2022-08-25T15:13:11.259Z,1.63
2022-08-25T15:15:52.937Z,1.80
2022-08-25T15:18:21.896Z,1.73
2022-08-25T15:20:50.151Z,2.20
2022-08-25T15:23:20.864Z,2.20
2022-08-25T15:25:52.946Z,1.90
2022-08-25T15:28:22.259Z,1.80
2022-08-25T15:30:50.036Z,1.83
2022-08-25T15:33:17.816Z,1.90
2022-08-25T15:35:45.675Z,1.75
2022-08-25T15:38:15.490Z,1.70
2022-08-25T15:40:43.312Z,1.65
2022-08-25T15:43:10.166Z,2.08
2022-08-25T15:45:37.649Z,1.70
2022-08-25T15:48:06.970Z,1.70
2022-08-25T15:50:37.038Z,1.73
2022-08-25T15:53:07.088Z,2.55
2022-08-25T15:55:42.245Z,2.08
2022-08-25T15:58:11.255Z,1.60
2022-08-25T16:00:38.533Z,2.10
2022-08-25T16:03:08.021Z,2.17
2022-08-25T16:05:41.327Z,1.92
2022-08-25T16:08:19.042Z,1.73
2022-08-25T16:10:46.362Z,1.85
2022-08-25T16:13:13.088Z,1.67
2022-08-25T16:15:45.881Z,1.65
2022-08-25T16:18:12.997Z,1.83
2022-08-25T16:20:47.111Z,1.73
2022-08-25T16:23:14.902Z,1.90
2022-08-25T16:25:43.473Z,1.83
2022-08-25T16:28:15.018Z,1.75
2022-08-25T16:30:52.534Z,1.60
2022-08-25T16:33:19.899Z,1.33
2022-08-25T16:35:47.530Z,1.70
2022-08-25T16:38:16.145Z,1.45
2022-08-25T16:40:43.472Z,1.60
2022-08-25T16:43:10.621Z,1.45
2022-08-25T16:45:37.815Z,1.40
2022-08-25T16:48:07.157Z,1.60
2022-08-25T16:50:34.561Z,1.48
2022-08-25T16:53:23.974Z,0.82
2022-08-25T16:56:00.652Z,1.20
2022-08-25T16:58:27.423Z,1.05
2022-08-25T17:01:09.424Z,1.20
2022-08-25T17:03:37.562Z,1.15
2022-08-25T17:06:05.562Z,0.95
2022-08-25T17:08:33.211Z,1.00
2022-08-25T17:11:23.194Z,1.20
2022-08-25T17:13:52.432Z,1.15
2022-08-25T17:16:21.410Z,0.80
2022-08-25T17:18:48.590Z,1.20
2022-08-25T17:21:23.918Z,1.02
2022-08-25T17:23:51.735Z,0.80
2022-08-25T17:26:19.772Z,1.05
2022-08-25T17:28:54.505Z,0.93
2022-08-25T17:31:22.356Z,1.13
2022-08-25T17:33:49.114Z,1.02
2022-08-25T17:36:17.409Z,1.00
2022-08-25T17:38:44.969Z,1.10
2022-08-25T17:41:14.930Z,0.82
2022-08-25T17:43:43.459Z,1.00
2022-08-25T17:46:11.630Z,0.80
2022-08-25T17:48:43.778Z,0.75
2022-08-25T17:51:11.109Z,0.85
2022-08-25T17:53:38.727Z,0.77
2022-08-25T17:56:11.674Z,0.90
2022-08-25T17:58:41.806Z,0.93
2022-08-25T18:01:18.698Z,0.80
2022-08-25T18:03:46.290Z,0.90
2022-08-25T18:06:15.151Z,1.00
2022-08-25T18:08:44.770Z,0.90
2022-08-25T18:11:19.876Z,0.80
2022-08-25T18:13:50.565Z,0.70
2022-08-25T18:16:17.719Z,0.80
2022-08-25T18:18:44.958Z,0.70
2022-08-25T18:21:16.861Z,0.70
2022-08-25T18:23:44.167Z,0.80
2022-08-25T18:26:13.096Z,0.70
2022-08-25T18:28:40.109Z,0.90
2022-08-25T18:31:11.991Z,0.80
2022-08-25T18:33:41.964Z,0.82
2022-08-25T18:36:12.245Z,0.80
2022-08-25T18:38:58.241Z,1.00
2022-08-25T18:41:25.787Z,0.98
2022-08-25T18:43:53.210Z,0.70
2022-08-25T18:46:22.567Z,1.13
2022-08-25T18:48:52.575Z,1.20
2022-08-25T18:51:22.837Z,1.13
2022-08-25T18:53:54.507Z,1.40
2022-08-25T18:56:26.154Z,0.80
2022-08-25T18:58:59.453Z,1.05
2022-08-25T19:01:26.395Z,0.88
2022-08-25T19:03:55.761Z,0.65
2022-08-25T19:06:22.728Z,0.80
2022-08-25T19:08:49.531Z,0.85
2022-08-25T19:11:17.569Z,0.90
2022-08-25T19:13:50.284Z,0.70
2022-08-25T19:16:30.598Z,1.13
2022-08-25T19:19:03.636Z,0.77
2022-08-25T19:21:31.356Z,1.35
2022-08-25T19:23:59.954Z,0.93
2022-08-25T19:26:27.379Z,0.80
2022-08-25T19:28:56.403Z,1.35
2022-08-25T19:31:27.271Z,1.20
2022-08-25T19:33:55.527Z,0.80
2022-08-25T19:36:28.137Z,0.70
2022-08-25T19:38:58.553Z,0.75
2022-08-25T19:41:27.646Z,0.60
2022-08-25T19:43:56.695Z,0.70
2022-08-25T19:46:35.793Z,0.68
2022-08-25T19:49:08.009Z,0.60
2022-08-25T19:51:37.654Z,0.70
2022-08-25T19:54:06.229Z,0.77
2022-08-25T19:56:36.947Z,0.70
2022-08-25T19:59:04.448Z,1.20
2022-08-25T20:01:31.659Z,0.60
2022-08-25T20:03:58.418Z,0.57
2022-08-25T20:06:27.653Z,0.47
2022-08-25T20:08:58.939Z,0.55
2022-08-25T20:11:28.968Z,0.40
2022-08-25T20:13:58.173Z,0.57
2022-08-25T20:16:31.086Z,0.70
2022-08-25T20:19:00.238Z,0.30
2022-08-25T20:21:27.958Z,0.60
2022-08-25T20:24:16.393Z,0.40
2022-08-25T20:29:11.360Z,0.30
2022-08-25T20:31:39.079Z,0.40
2022-08-25T20:34:07.004Z,0.47
2022-08-25T20:36:34.695Z,0.50
2022-08-25T20:39:03.892Z,0.30
2022-08-25T20:41:33.174Z,0.43
2022-08-25T20:44:03.956Z,0.57
2022-08-25T20:46:33.826Z,0.30
2022-08-25T20:49:01.466Z,0.63
2022-08-25T20:51:29.988Z,0.40
2022-08-25T20:53:57.233Z,0.30
2022-08-25T20:56:24.379Z,0.32
2022-08-25T20:58:51.516Z,0.38
2022-08-25T21:01:23.070Z,0.30
2022-08-25T21:03:50.807Z,0.20
2022-08-25T21:06:17.761Z,0.30
2022-08-25T21:08:46.775Z,0.63
2022-08-25T21:11:15.535Z,0.32
2022-08-25T21:13:42.343Z,0.45
2022-08-25T21:16:09.175Z,0.45
2022-08-25T21:19:08.976Z,0.40
2022-08-25T21:21:38.674Z,0.20
2022-08-25T21:24:10.219Z,0.40
2022-08-25T21:26:48.913Z,1.20
2022-08-25T21:29:16.864Z,1.02
2022-08-25T21:31:44.390Z,0.80
2022-08-25T21:34:12.784Z,0.40
2022-08-25T21:36:40.756Z,0.40
2022-08-25T21:39:08.055Z,0.30
2022-08-25T21:41:36.866Z,0.50
2022-08-25T21:44:04.524Z,0.60
2022-08-25T21:46:33.422Z,0.70
2022-08-25T21:49:06.102Z,0.40
2022-08-25T21:51:40.800Z,0.60
2022-08-25T21:54:10.892Z,0.52
2022-08-25T21:57:00.649Z,0.40
2022-08-25T21:59:31.721Z,0.52
2022-08-25T22:02:04.962Z,0.50
2022-08-25T22:04:32.576Z,0.55
2022-08-25T22:07:00.525Z,0.50
2022-08-25T22:09:28.573Z,0.45
2022-08-25T22:11:56.190Z,0.50
2022-08-25T22:14:26.280Z,0.70
2022-08-25T22:16:53.960Z,0.50
2022-08-25T22:19:21.444Z,0.60
2022-08-25T22:21:52.835Z,0.55
2022-08-25T22:24:21.061Z,0.50
2022-08-25T22:26:49.140Z,0.50
2022-08-25T22:29:26.042Z,0.70
2022-08-25T22:32:00.980Z,0.40
2022-08-25T22:34:34.218Z,0.47
2022-08-25T22:37:06.000Z,0.60
2022-08-25T22:39:34.209Z,0.60
2022-08-25T22:42:01.935Z,0.55
2022-08-25T22:44:29.159Z,0.70
2022-08-25T22:46:56.054Z,0.60
2022-08-25T22:49:23.641Z,0.50
2022-08-25T22:51:53.796Z,0.60
2022-08-25T22:54:22.169Z,0.77
2022-08-25T22:56:48.890Z,0.60
2022-08-25T22:59:15.726Z,0.50
2022-08-25T23:01:44.316Z,0.35
2022-08-25T23:04:11.716Z,0.80
2022-08-25T23:06:39.738Z,0.68
2022-08-25T23:09:08.342Z,0.55
2022-08-25T23:11:38.597Z,0.52
2022-08-25T23:14:09.938Z,0.77
2022-08-25T23:16:38.784Z,0.80
2022-08-25T23:19:05.987Z,0.65
2022-08-25T23:21:53.132Z,0.90
2022-08-25T23:24:30.081Z,0.90
2022-08-25T23:27:02.905Z,1.08
2022-08-25T23:29:32.384Z,0.70
2022-08-25T23:31:59.543Z,0.85
2022-08-25T23:34:26.544Z,0.73
2022-08-25T23:36:53.904Z,0.60
2022-08-25T23:39:21.886Z,0.82
2022-08-25T23:41:50.131Z,0.90
2022-08-25T23:44:18.663Z,0.65
2022-08-25T23:46:47.095Z,0.93
2022-08-25T23:49:15.129Z,0.70
2022-08-25T23:51:47.537Z,0.70
2022-08-25T23:54:14.828Z,0.90
2022-08-25T23:56:44.557Z,1.00
2022-08-25T23:59:18.338Z,0.70
